createdAt,value
2023-04-13T00:00:14.535Z,97676.66
2023-04-13T00:02:46.692Z,97680.84
2023-04-13T00:05:15.084Z,97680.22
2023-04-13T00:07:43.509Z,97689.06
2023-04-13T00:10:12.356Z,97691.00
2023-04-13T00:12:41.125Z,97684.81
2023-04-13T00:15:10.444Z,97682.84
2023-04-13T00:17:39.103Z,97681.03
2023-04-13T00:20:13.578Z,97689.84
2023-04-13T00:22:43.228Z,97692.25
2023-04-13T00:25:14.593Z,97692.16
2023-04-13T00:27:44.276Z,97688.78
2023-04-13T00:30:15.873Z,97688.06
2023-04-13T00:32:45.357Z,97690.06
2023-04-13T00:35:19.159Z,97696.34
2023-04-13T00:37:48.840Z,97691.09
2023-04-13T00:40:18.428Z,97702.66
2023-04-13T00:42:47.508Z,97694.56
2023-04-13T00:45:15.782Z,97690.56
2023-04-13T00:47:48.288Z,97691.09
2023-04-13T00:50:20.384Z,97685.53
2023-04-13T00:52:49.273Z,97683.44
2023-04-13T00:55:21.669Z,97690.06
2023-04-13T00:57:53.127Z,97681.75
2023-04-13T01:00:24.890Z,97686.00
2023-04-13T01:02:53.975Z,97681.97
2023-04-13T01:05:26.195Z,97683.88
2023-04-13T01:08:04.168Z,97671.56
2023-04-13T01:10:38.102Z,97671.56
2023-04-13T01:13:13.125Z,97672.09
2023-04-13T01:15:46.455Z,97664.53
2023-04-13T01:18:16.497Z,97665.88
2023-04-13T01:20:49.330Z,97659.69
2023-04-13T01:23:28.658Z,97670.75
2023-04-13T01:26:01.061Z,97669.06
2023-04-13T01:28:32.308Z,97664.44
2023-04-13T01:31:02.188Z,97670.00
2023-04-13T01:33:33.901Z,97666.94
2023-04-13T01:36:03.373Z,97669.25
2023-04-13T01:38:31.391Z,97670.69
2023-04-13T01:40:59.715Z,97666.09
2023-04-13T01:43:30.724Z,97659.91
2023-04-13T01:46:04.278Z,97662.94
2023-04-13T01:48:39.964Z,97666.63
2023-04-13T01:51:13.584Z,97657.81
2023-04-13T01:53:49.190Z,97658.75
2023-04-13T01:56:19.464Z,97661.47
2023-04-13T01:58:51.441Z,97648.91
2023-04-13T02:01:19.481Z,97640.06
2023-04-13T02:03:49.058Z,97639.22
2023-04-13T02:06:17.477Z,97636.28
2023-04-13T02:08:45.559Z,97640.19
2023-04-13T02:11:14.022Z,97652.53
2023-04-13T02:13:42.350Z,97638.50
2023-04-13T02:16:12.422Z,97644.81
2023-04-13T02:18:41.205Z,97640.81
2023-04-13T02:21:11.492Z,97637.31
2023-04-13T02:23:41.436Z,97639.34
2023-04-13T02:26:10.256Z,97638.94
2023-04-13T02:28:38.665Z,97638.94
2023-04-13T02:31:07.317Z,97633.44
2023-04-13T02:33:37.889Z,97631.88
2023-04-13T02:36:07.086Z,97641.94
2023-04-13T02:38:37.386Z,97637.34
2023-04-13T02:41:06.708Z,97639.63
2023-04-13T02:43:35.802Z,97640.06
2023-04-13T02:46:04.693Z,97642.50
2023-04-13T02:48:33.301Z,97631.56
2023-04-13T02:51:03.363Z,97627.13
2023-04-13T02:53:31.357Z,97630.50
2023-04-13T02:55:59.465Z,97633.53
2023-04-13T02:58:27.676Z,97627.97
2023-04-13T03:00:56.765Z,97638.25
2023-04-13T03:03:25.021Z,97626.72
2023-04-13T03:05:53.411Z,97627.44
2023-04-13T03:08:23.929Z,97633.88
2023-04-13T03:10:54.402Z,97626.19
2023-04-13T03:13:23.017Z,97636.78
2023-04-13T03:15:51.104Z,97634.16
2023-04-13T03:18:19.409Z,97629.47
2023-04-13T03:20:47.763Z,97631.75
2023-04-13T03:23:16.414Z,97635.22
2023-04-13T03:25:45.899Z,97639.13
2023-04-13T03:28:13.961Z,97641.88
2023-04-13T03:30:42.044Z,97644.06
2023-04-13T03:33:10.045Z,97643.50
2023-04-13T03:35:38.041Z,97636.41
2023-04-13T03:38:06.460Z,97630.38
2023-04-13T03:40:34.841Z,97630.44
2023-04-13T03:43:04.867Z,97623.69
2023-04-13T03:45:34.552Z,97629.66
2023-04-13T03:48:02.684Z,97630.38
2023-04-13T03:50:31.503Z,97629.88
2023-04-13T03:52:59.645Z,97636.38
2023-04-13T03:55:27.764Z,97632.06
2023-04-13T03:57:56.535Z,97639.44
2023-04-13T04:00:26.410Z,97631.63
2023-04-13T04:02:54.647Z,97628.38
2023-04-13T04:05:24.194Z,97631.00
2023-04-13T04:07:53.431Z,97626.59
2023-04-13T04:10:21.780Z,97623.63
2023-04-13T04:12:49.828Z,97624.97
2023-04-13T04:15:18.257Z,97621.94
2023-04-13T04:17:47.794Z,97624.44
2023-04-13T04:20:16.413Z,97611.28
2023-04-13T04:22:45.047Z,97623.88
2023-04-13T04:25:13.136Z,97612.44
2023-04-13T04:27:41.562Z,97614.81
2023-04-13T04:30:11.051Z,97613.03
2023-04-13T04:32:40.752Z,97620.81
2023-04-13T04:35:13.268Z,97615.09
2023-04-13T04:37:41.546Z,97623.44
2023-04-13T04:40:10.778Z,97624.28
2023-04-13T04:42:39.107Z,97627.25
2023-04-13T04:45:08.293Z,97631.00
2023-04-13T04:47:42.111Z,97637.00
2023-04-13T04:50:17.936Z,97647.00
2023-04-13T04:52:46.128Z,97654.84
2023-04-13T04:55:14.126Z,97656.13
2023-04-13T04:57:43.983Z,97661.78
2023-04-13T05:00:15.861Z,97658.59
2023-04-13T05:02:46.668Z,97666.31
2023-04-13T05:05:16.572Z,97667.25
2023-04-13T05:07:45.188Z,97666.38
2023-04-13T05:10:13.510Z,97668.28
2023-04-13T05:12:41.486Z,97669.03
2023-04-13T05:15:12.244Z,97669.09
2023-04-13T05:17:41.788Z,97664.47
2023-04-13T05:20:11.045Z,97668.72
2023-04-13T05:22:40.652Z,97666.44
2023-04-13T05:25:09.559Z,97678.13
2023-04-13T05:27:37.583Z,97673.69
2023-04-13T05:30:06.767Z,97677.69
2023-04-13T05:32:35.441Z,97685.19
2023-04-13T05:35:04.521Z,97672.78
2023-04-13T05:37:32.890Z,97682.34
2023-04-13T05:40:02.665Z,97676.97
2023-04-13T05:42:31.109Z,97676.13
2023-04-13T05:44:59.163Z,97685.41
2023-04-13T05:47:27.492Z,97678.81
2023-04-13T05:49:55.630Z,97685.56
2023-04-13T05:52:24.256Z,97693.81
2023-04-13T05:54:52.765Z,97689.22
2023-04-13T05:57:22.336Z,97698.13
2023-04-13T05:59:51.924Z,97699.91
2023-04-13T06:02:20.992Z,97685.31
2023-04-13T06:04:49.381Z,97694.53
2023-04-13T06:07:17.949Z,97690.50
2023-04-13T06:09:46.195Z,97691.59
2023-04-13T06:12:16.035Z,97692.31
2023-04-13T06:14:46.201Z,97695.66
2023-04-13T06:17:14.250Z,97696.91
2023-04-13T06:19:42.228Z,97703.44
2023-04-13T06:22:10.577Z,97702.41
2023-04-13T06:24:39.112Z,97700.84
2023-04-13T06:27:07.306Z,97709.50
2023-04-13T06:29:36.702Z,97718.56
2023-04-13T06:32:06.858Z,97728.53
2023-04-13T06:34:35.924Z,97713.81
2023-04-13T06:37:04.426Z,97729.25
2023-04-13T06:39:37.781Z,97717.06
2023-04-13T06:42:06.984Z,97719.50
2023-04-13T06:44:35.112Z,97717.19
2023-04-13T06:47:03.172Z,97722.84
2023-04-13T06:49:35.495Z,97721.22
2023-04-13T06:52:03.599Z,97727.19
2023-04-13T06:54:31.810Z,97734.53
2023-04-13T06:57:02.181Z,97733.28
2023-04-13T06:59:30.238Z,97732.22
2023-04-13T07:01:58.484Z,97732.00
2023-04-13T07:04:29.114Z,97719.75
2023-04-13T07:07:00.579Z,97754.94
2023-04-13T07:09:28.858Z,97749.56
2023-04-13T07:11:58.123Z,97757.59
2023-04-13T07:14:26.437Z,97763.00
2023-04-13T07:16:54.536Z,97762.69
2023-04-13T07:19:23.865Z,97768.53
2023-04-13T07:21:52.149Z,97753.63
2023-04-13T07:24:21.685Z,97757.03
2023-04-13T07:26:50.088Z,97761.97
2023-04-13T07:29:18.275Z,97761.13
2023-04-13T07:31:47.866Z,97756.47
2023-04-13T07:34:16.468Z,97771.31
2023-04-13T07:36:44.943Z,97772.66
2023-04-13T07:39:13.038Z,97786.59
2023-04-13T07:41:42.954Z,97784.88
2023-04-13T07:44:11.440Z,97787.03
2023-04-13T07:46:40.118Z,97790.59
2023-04-13T07:49:08.462Z,97809.31
2023-04-13T07:51:36.558Z,97791.72
2023-04-13T07:54:04.730Z,97791.13
2023-04-13T07:56:36.407Z,97794.50
2023-04-13T07:59:06.317Z,97803.91
2023-04-13T08:01:35.099Z,97797.53
2023-04-13T08:04:03.525Z,97803.78
2023-04-13T08:06:31.922Z,97807.59
2023-04-13T08:09:00.926Z,97808.22
2023-04-13T08:11:29.010Z,97815.31
2023-04-13T08:13:57.069Z,97816.84
2023-04-13T08:16:26.940Z,97820.69
2023-04-13T08:18:55.020Z,97821.50
2023-04-13T08:21:22.942Z,97832.22
2023-04-13T08:23:51.543Z,97822.25
2023-04-13T08:26:20.639Z,97841.53
2023-04-13T08:28:49.695Z,97842.00
2023-04-13T08:31:18.041Z,97832.56
2023-04-13T08:33:48.367Z,97849.56
2023-04-13T08:36:17.623Z,97848.25
2023-04-13T08:38:47.038Z,97847.53
2023-04-13T08:41:16.637Z,97853.91
2023-04-13T08:43:47.854Z,97858.78
2023-04-13T08:46:21.489Z,97861.44
2023-04-13T08:48:56.015Z,97873.84
2023-04-13T08:51:24.421Z,97852.91
2023-04-13T08:53:54.883Z,97859.91
2023-04-13T08:56:37.766Z,97866.56
2023-04-13T08:59:15.762Z,97868.19
2023-04-13T09:01:48.910Z,97869.00
2023-04-13T09:04:22.997Z,97879.31
2023-04-13T09:06:52.697Z,97869.81
2023-04-13T09:09:22.362Z,97885.56
2023-04-13T09:11:51.956Z,97890.06
2023-04-13T09:14:22.211Z,97892.63
2023-04-13T09:16:50.862Z,97887.69
2023-04-13T09:19:30.349Z,97894.19
2023-04-13T09:21:58.619Z,97912.53
2023-04-13T09:24:27.512Z,97904.06
2023-04-13T09:26:58.595Z,97905.16
2023-04-13T09:29:27.288Z,97907.50
2023-04-13T09:31:55.499Z,97914.50
2023-04-13T09:34:31.616Z,97897.56
2023-04-13T09:37:01.819Z,97902.38
2023-04-13T09:39:30.161Z,97886.56
2023-04-13T09:41:58.830Z,97893.75
2023-04-13T09:44:28.815Z,97891.81
2023-04-13T09:47:01.292Z,97889.19
2023-04-13T09:49:40.265Z,97895.03
2023-04-13T09:52:20.477Z,97889.53
2023-04-13T09:54:51.390Z,97898.25
2023-04-13T09:57:26.412Z,97895.38
2023-04-13T09:59:55.685Z,97892.88
2023-04-13T10:02:24.572Z,97892.88
2023-04-13T10:04:55.031Z,97899.69
2023-04-13T10:07:26.981Z,97884.53
2023-04-13T10:09:55.457Z,97882.84
2023-04-13T10:12:26.408Z,97885.69
2023-04-13T10:15:05.946Z,97882.19
2023-04-13T10:17:45.730Z,97884.84
2023-04-13T10:20:16.312Z,97881.16
2023-04-13T10:22:47.339Z,97880.19
2023-04-13T10:25:29.642Z,97869.19
2023-04-13T10:28:01.285Z,97888.91
2023-04-13T10:30:29.858Z,97888.56
2023-04-13T10:33:08.861Z,97886.34
2023-04-13T10:35:40.776Z,97891.78
2023-04-13T10:38:11.775Z,97894.41
2023-04-13T10:40:46.535Z,97894.91
2023-04-13T10:43:25.529Z,97904.66
2023-04-13T10:46:06.469Z,97910.00
2023-04-13T10:48:34.747Z,97919.53
2023-04-13T10:51:05.171Z,97934.78
2023-04-13T10:53:36.179Z,97933.78
2023-04-13T10:56:05.367Z,97911.41
2023-04-13T10:58:34.710Z,97906.94
2023-04-13T11:01:03.534Z,97906.31
2023-04-13T11:03:32.335Z,97902.75
2023-04-13T11:06:02.637Z,97905.25
2023-04-13T11:08:33.038Z,97899.19
2023-04-13T11:11:01.643Z,97904.41
2023-04-13T11:13:31.364Z,97902.75
2023-04-13T11:16:04.209Z,97912.00
2023-04-13T11:18:32.706Z,97913.75
2023-04-13T11:21:05.273Z,97910.22
2023-04-13T11:23:37.833Z,97902.59
2023-04-13T11:26:06.484Z,97908.22
2023-04-13T11:28:40.140Z,97915.00
2023-04-13T11:31:09.055Z,97910.69
2023-04-13T11:33:40.104Z,97912.91
2023-04-13T11:36:11.966Z,97909.22
2023-04-13T11:38:43.148Z,97912.84
2023-04-13T11:43:42.884Z,97900.50
2023-04-13T11:46:12.983Z,97897.56
2023-04-13T11:48:41.627Z,97908.41
2023-04-13T11:51:11.335Z,97905.69
2023-04-13T11:53:41.643Z,97900.97
2023-04-13T11:56:10.775Z,97894.38
2023-04-13T11:58:40.163Z,97898.31
2023-04-13T12:01:14.350Z,97894.38
2023-04-13T12:04:04.131Z,97893.63
2023-04-13T12:06:36.556Z,97892.69
2023-04-13T12:09:11.147Z,97885.28
2023-04-13T12:11:46.667Z,97885.13
2023-04-13T12:19:30.395Z,97897.72
2023-04-13T12:22:00.440Z,97899.53
2023-04-13T12:24:39.377Z,97894.16
2023-04-13T12:29:39.796Z,97902.25
2023-04-13T12:32:14.225Z,97904.91
2023-04-13T12:34:43.253Z,97916.00
2023-04-13T12:37:12.421Z,97912.16
2023-04-13T12:39:43.228Z,97930.34
2023-04-13T12:42:12.381Z,97929.94
2023-04-13T12:44:40.453Z,97928.53
2023-04-13T12:47:08.958Z,97936.00
2023-04-13T12:49:37.051Z,97933.44
2023-04-13T12:52:05.361Z,97924.84
2023-04-13T12:54:33.574Z,97931.44
2023-04-13T12:57:03.398Z,97927.59
2023-04-13T12:59:31.556Z,97938.25
2023-04-13T13:01:59.704Z,97944.03
2023-04-13T13:04:30.388Z,97948.97
2023-04-13T13:06:58.805Z,97947.47
2023-04-13T13:09:27.286Z,97952.59
2023-04-13T13:11:56.331Z,97978.94
2023-04-13T13:14:26.029Z,97981.00
2023-04-13T13:16:54.121Z,97972.19
2023-04-13T13:19:23.864Z,97974.53
2023-04-13T13:21:51.941Z,97986.72
2023-04-13T13:24:20.349Z,98000.53
2023-04-13T13:27:14.346Z,98016.19
2023-04-13T13:29:38.113Z,98011.44
2023-04-13T13:32:07.224Z,98018.84
2023-04-13T13:34:35.434Z,98029.00
2023-04-13T13:37:03.523Z,98020.16
2023-04-13T13:39:32.366Z,98020.31
2023-04-13T13:42:00.442Z,98018.81
2023-04-13T13:44:28.808Z,98012.94
2023-04-13T13:46:58.783Z,98017.06
2023-04-13T13:49:26.889Z,98018.41
2023-04-13T13:51:55.043Z,98020.31
2023-04-13T13:54:23.089Z,98022.56
2023-04-13T13:56:51.532Z,98011.84
2023-04-13T13:59:20.071Z,98012.31
2023-04-13T14:01:49.556Z,98013.97
2023-04-13T14:04:20.985Z,98002.03
2023-04-13T14:06:49.858Z,98014.13
2023-04-13T14:09:19.778Z,98005.13
2023-04-13T14:11:47.958Z,98002.38
2023-04-13T14:14:21.672Z,98015.13
2023-04-13T14:16:50.781Z,98020.63
2023-04-13T14:19:22.244Z,98018.22
2023-04-13T14:21:50.768Z,98021.88
2023-04-13T14:24:19.266Z,98020.09
2023-04-13T14:26:47.499Z,98020.41
2023-04-13T14:29:16.449Z,98019.97
2023-04-13T14:31:44.708Z,98010.81
2023-04-13T14:34:12.884Z,98014.81
2023-04-13T14:36:42.735Z,98010.59
2023-04-13T14:39:10.981Z,98017.69
2023-04-13T14:41:39.123Z,98018.09
2023-04-13T14:44:07.993Z,98028.03
2023-04-13T14:46:36.393Z,98023.66
2023-04-13T14:49:04.731Z,98030.84
2023-04-13T14:51:33.074Z,98033.16
2023-04-13T14:54:03.550Z,98032.13
2023-04-13T14:56:32.086Z,98040.72
2023-04-13T14:59:00.766Z,98043.78
2023-04-13T15:01:29.244Z,98033.56
2023-04-13T15:03:57.592Z,98038.16
2023-04-13T15:06:27.672Z,98032.59
2023-04-13T15:08:56.525Z,98047.78
2023-04-13T15:11:27.324Z,98039.47
2023-04-13T15:13:56.767Z,98046.06
2023-04-13T15:16:25.065Z,98052.88
2023-04-13T15:18:53.209Z,98056.50
2023-04-13T15:21:21.304Z,98055.81
2023-04-13T15:23:49.634Z,98059.84
2023-04-13T15:26:18.925Z,98062.63
2023-04-13T15:28:48.575Z,98057.13
2023-04-13T15:31:16.786Z,98058.25
2023-04-13T15:33:45.133Z,98068.88
2023-04-13T15:36:15.948Z,98054.41
2023-04-13T15:38:44.186Z,98062.53
2023-04-13T15:41:12.698Z,98069.38
2023-04-13T15:43:41.962Z,98067.94
2023-04-13T15:46:11.872Z,98066.19
2023-04-13T15:48:40.153Z,98069.00
2023-04-13T15:51:08.432Z,98068.13
2023-04-13T15:53:36.629Z,98074.09
2023-04-13T15:56:05.047Z,98070.84
2023-04-13T15:58:33.441Z,98074.19
2023-04-13T16:01:05.297Z,98068.03
2023-04-13T16:03:36.407Z,98067.78
2023-04-13T16:06:05.039Z,98071.50
2023-04-13T16:08:33.309Z,98072.66
2023-04-13T16:11:01.998Z,98073.09
2023-04-13T16:13:48.850Z,98072.41
2023-04-13T16:16:18.555Z,98083.91
2023-04-13T16:18:49.514Z,98085.16
2023-04-13T16:21:19.680Z,98094.03
2023-04-13T16:23:49.301Z,98095.06
2023-04-13T16:26:17.426Z,98079.06
2023-04-13T16:28:45.593Z,98078.91
2023-04-13T16:31:14.096Z,98084.56
2023-04-13T16:33:42.700Z,98079.47
2023-04-13T16:36:13.536Z,98086.97
2023-04-13T16:38:42.989Z,98086.63
2023-04-13T16:41:11.931Z,98093.19
2023-04-13T16:43:40.056Z,98084.09
2023-04-13T16:46:08.128Z,98096.38
2023-04-13T16:48:36.562Z,98097.63
2023-04-13T16:51:05.122Z,98102.97
2023-04-13T16:53:35.098Z,98099.03
2023-04-13T16:56:04.444Z,98101.03
2023-04-13T16:58:32.960Z,98120.09
2023-04-13T17:01:01.418Z,98113.75
2023-04-13T17:03:29.688Z,98116.53
2023-04-13T17:05:57.960Z,98114.03
2023-04-13T17:08:26.237Z,98118.53
2023-04-13T17:10:55.844Z,98117.66
2023-04-13T17:13:23.895Z,98114.78
2023-04-13T17:15:52.099Z,98122.50
2023-04-13T17:18:20.556Z,98120.38
2023-04-13T17:20:54.998Z,98121.19
2023-04-13T17:23:23.989Z,98131.53
2023-04-13T17:25:53.754Z,98133.00
2023-04-13T17:28:25.232Z,98137.56
2023-04-13T17:30:54.137Z,98135.78
2023-04-13T17:33:24.545Z,98139.25
2023-04-13T17:35:54.398Z,98145.53
2023-04-13T17:38:22.831Z,98149.16
2023-04-13T17:40:52.402Z,98148.31
2023-04-13T17:43:20.618Z,98149.47
2023-04-13T17:45:50.117Z,98163.72
2023-04-13T17:48:18.459Z,98163.13
2023-04-13T17:50:46.941Z,98169.09
2023-04-13T17:53:15.716Z,98159.66
2023-04-13T17:55:44.352Z,98165.25
2023-04-13T17:58:12.948Z,98175.50
2023-04-13T18:00:41.104Z,98177.81
2023-04-13T18:03:11.998Z,98188.78
2023-04-13T18:05:44.582Z,98193.50
2023-04-13T18:08:12.818Z,98191.34
2023-04-13T18:10:40.950Z,98204.56
2023-04-13T18:13:08.962Z,98212.41
2023-04-13T18:15:37.004Z,98206.16
2023-04-13T18:18:05.858Z,98206.63
2023-04-13T18:20:35.356Z,98213.63
2023-04-13T18:23:03.664Z,98220.31
2023-04-13T18:25:31.788Z,98223.66
2023-04-13T18:27:59.800Z,98219.44
2023-04-13T18:30:27.917Z,98229.78
2023-04-13T18:32:56.232Z,98235.25
2023-04-13T18:35:24.611Z,98243.19
2023-04-13T18:37:54.245Z,98238.25
2023-04-13T18:40:22.364Z,98240.75
2023-04-13T18:42:50.709Z,98242.69
2023-04-13T18:45:19.509Z,98244.66
2023-04-13T18:47:47.805Z,98250.22
2023-04-13T18:50:15.831Z,98259.56
2023-04-13T18:52:43.938Z,98262.38
2023-04-13T18:55:13.893Z,98272.16
2023-04-13T18:57:42.341Z,98275.84
2023-04-13T19:00:11.779Z,98272.84
2023-04-13T19:02:40.798Z,98285.22
2023-04-13T19:05:12.795Z,98279.59
2023-04-13T19:07:42.558Z,98286.31
2023-04-13T19:10:13.848Z,98294.00
2023-04-13T19:12:41.988Z,98293.16
2023-04-13T19:15:10.562Z,98299.88
2023-04-13T19:17:38.719Z,98305.59
2023-04-13T19:20:10.278Z,98315.31
2023-04-13T19:22:38.506Z,98312.84
2023-04-13T19:25:14.273Z,98309.13
2023-04-13T19:27:44.818Z,98308.22
2023-04-13T19:30:13.699Z,98304.06
2023-04-13T19:32:43.405Z,98305.63
2023-04-13T19:35:12.971Z,98293.94
2023-04-13T19:37:41.808Z,98298.47
2023-04-13T19:40:13.932Z,98296.50
2023-04-13T19:42:45.126Z,98294.38
2023-04-13T19:45:14.985Z,98290.47
2023-04-13T19:47:43.693Z,98291.78
2023-04-13T19:50:14.145Z,98292.63
2023-04-13T19:52:43.422Z,98304.25
2023-04-13T19:55:12.161Z,98310.56
2023-04-13T19:57:42.997Z,98302.84
2023-04-13T20:00:22.531Z,98295.47
2023-04-13T20:02:52.841Z,98303.28
2023-04-13T20:05:22.085Z,98297.06
2023-04-13T20:07:50.402Z,98287.22
2023-04-13T20:10:18.606Z,98279.50
2023-04-13T20:12:46.940Z,98278.78
2023-04-13T20:15:16.486Z,98283.41
2023-04-13T20:17:44.646Z,98286.66
2023-04-13T20:20:13.727Z,98278.25
2023-04-13T20:22:42.207Z,98273.59
2023-04-13T20:25:11.196Z,98282.16
2023-04-13T20:27:42.137Z,98282.88
2023-04-13T20:30:11.871Z,98281.63
2023-04-13T20:32:41.759Z,98282.13
2023-04-13T20:35:11.065Z,98284.75
2023-04-13T20:37:39.300Z,98286.53
2023-04-13T20:40:11.547Z,98294.63
2023-04-13T20:42:42.032Z,98304.69
2023-04-13T20:45:12.803Z,98306.28
2023-04-13T20:47:43.425Z,98304.16
2023-04-13T20:50:13.335Z,98301.44
2023-04-13T20:52:43.402Z,98301.44
2023-04-13T20:55:12.135Z,98304.31
2023-04-13T20:57:42.384Z,98304.56
2023-04-13T21:00:15.375Z,98303.94
2023-04-13T21:02:47.221Z,98302.06
2023-04-13T21:05:15.487Z,98304.75
2023-04-13T21:07:43.730Z,98304.53
2023-04-13T21:10:12.686Z,98300.34
2023-04-13T21:12:40.730Z,98308.75
2023-04-13T21:15:10.568Z,98309.94
2023-04-13T21:17:38.976Z,98305.00
2023-04-13T21:20:10.673Z,98301.34
2023-04-13T21:22:38.810Z,98310.28
2023-04-13T21:25:08.012Z,98309.38
2023-04-13T21:27:36.249Z,98316.34
2023-04-13T21:30:04.541Z,98325.47
2023-04-13T21:32:32.735Z,98322.28
2023-04-13T21:35:01.152Z,98317.81
2023-04-13T21:37:31.342Z,98329.09
2023-04-13T21:40:00.997Z,98326.28
2023-04-13T21:42:29.697Z,98327.28
2023-04-13T21:44:58.277Z,98331.63
2023-04-13T21:47:26.824Z,98329.09
2023-04-13T21:49:55.428Z,98329.81
2023-04-13T21:52:23.537Z,98329.19
2023-04-13T21:54:53.333Z,98334.25
2023-04-13T21:57:21.743Z,98342.63
2023-04-13T21:59:49.845Z,98338.97
2023-04-13T22:02:17.952Z,98343.38
2023-04-13T22:04:46.081Z,98344.03
2023-04-13T22:07:14.680Z,98342.34
2023-04-13T22:09:42.746Z,98340.56
2023-04-13T22:12:14.327Z,98336.88
2023-04-13T22:14:43.970Z,98345.44
2023-04-13T22:17:14.444Z,98343.63
2023-04-13T22:19:42.821Z,98352.00
2023-04-13T22:22:10.886Z,98344.22
2023-04-13T22:24:39.177Z,98345.25
2023-04-13T22:27:07.348Z,98348.69
2023-04-13T22:29:40.222Z,98356.97
2023-04-13T22:32:08.213Z,98343.19
2023-04-13T22:34:36.563Z,98342.88
2023-04-13T22:37:05.161Z,98337.72
2023-04-13T22:39:33.361Z,98340.56
2023-04-13T22:42:01.717Z,98330.03
2023-04-13T22:44:34.392Z,98333.88
2023-04-13T22:47:04.924Z,98333.47
2023-04-13T22:49:32.952Z,98330.75
2023-04-13T22:52:01.894Z,98334.66
2023-04-13T22:54:31.520Z,98339.38
2023-04-13T22:57:02.828Z,98336.53
2023-04-13T22:59:32.951Z,98353.66
2023-04-13T23:02:01.374Z,98351.03
2023-04-13T23:04:31.483Z,98360.41
2023-04-13T23:06:59.940Z,98370.25
2023-04-13T23:09:28.134Z,98366.78
2023-04-13T23:11:56.417Z,98366.56
2023-04-13T23:14:25.127Z,98356.41
2023-04-13T23:16:53.126Z,98363.44
2023-04-13T23:19:21.327Z,98363.75
2023-04-13T23:21:50.866Z,98361.75
2023-04-13T23:24:18.993Z,98362.59
2023-04-13T23:26:47.181Z,98376.25
2023-04-13T23:29:17.266Z,98364.28
2023-04-13T23:31:45.660Z,98370.59
2023-04-13T23:34:13.828Z,98387.75
2023-04-13T23:36:42.083Z,98385.25
2023-04-13T23:39:11.610Z,98393.47
2023-04-13T23:41:39.850Z,98391.41
2023-04-13T23:44:07.959Z,98394.31
2023-04-13T23:46:36.423Z,98395.25
2023-04-13T23:49:04.569Z,98392.53
2023-04-13T23:51:32.800Z,98398.47
2023-04-13T23:54:00.802Z,98396.38
2023-04-13T23:56:30.640Z,98392.47
2023-04-13T23:58:59.280Z,98401.84
